CLJ weather

Cluj-Napoca International Airport
Cluj-Napoca, Cluj, Romania

Public forecast

Using degrees Celsius for public forecast. Weather courtesy of forecast.io.

Current aviation weather report (METAR) for Cluj-Napoca International Airport

Retrieved 2019/10/17 11:30 UTC (0 seconds ago):

LRCL 171130Z 09005KT 060V130 CAVOK 22/08 Q1019

Closest aviation forecast (TAF) to Cluj-Napoca International Airport

Closest forecast is C├ómpia Turzii Air Base, 18.9 nm (35.0 km) SSE. Retrieved 2019/10/17 06:03 UTC (5 hours ago):

TAF LRCT 170500Z 1706/1806 14003KT 9999 FEW200 TEMPO 1706/1708 1000 BR SCT005 BECMG 1710/1712 08004KT SCT100 PROB30 TEMPO 0801/0805 0800 FG